sensor_id;sensor_type;location;lat;lon;timestamp;P1;durP1;ratioP1;P2;durP2;ratioP2
1400;SDS011;46518;48.842;8.926;2023-09-19T00:02:17;2.25;;;1.30;;
1400;SDS011;46518;48.842;8.926;2023-09-19T00:04:46;2.15;;;1.25;;
1400;SDS011;46518;48.842;8.926;2023-09-19T00:07:15;1.65;;;1.25;;
1400;SDS011;46518;48.842;8.926;2023-09-19T00:09:43;1.42;;;1.33;;
1400;SDS011;46518;48.842;8.926;2023-09-19T00:12:13;1.75;;;1.38;;
1400;SDS011;46518;48.842;8.926;2023-09-19T00:14:41;3.25;;;1.67;;
1400;SDS011;46518;48.842;8.926;2023-09-19T00:17:11;2.58;;;1.30;;
1400;SDS011;46518;48.842;8.926;2023-09-19T00:19:39;1.83;;;1.20;;
1400;SDS011;46518;48.842;8.926;2023-09-19T00:22:09;1.48;;;1.38;;
1400;SDS011;46518;48.842;8.926;2023-09-19T00:24:40;2.08;;;1.42;;
1400;SDS011;46518;48.842;8.926;2023-09-19T00:27:08;1.30;;;1.20;;
1400;SDS011;46518;48.842;8.926;2023-09-19T00:29:36;3.42;;;1.20;;
1400;SDS011;46518;48.842;8.926;2023-09-19T00:32:06;1.30;;;1.15;;
1400;SDS011;46518;48.842;8.926;2023-09-19T00:34:36;1.30;;;1.20;;
1400;SDS011;46518;48.842;8.926;2023-09-19T00:37:05;1.15;;;0.95;;
1400;SDS011;46518;48.842;8.926;2023-09-19T00:39:33;2.35;;;1.95;;
1400;SDS011;46518;48.842;8.926;2023-09-19T00:42:01;1.60;;;1.50;;
1400;SDS011;46518;48.842;8.926;2023-09-19T00:44:32;2.28;;;1.38;;
1400;SDS011;46518;48.842;8.926;2023-09-19T00:47:01;1.83;;;1.30;;
1400;SDS011;46518;48.842;8.926;2023-09-19T00:49:30;2.55;;;1.38;;
1400;SDS011;46518;48.842;8.926;2023-09-19T00:52:01;1.65;;;1.23;;
1400;SDS011;46518;48.842;8.926;2023-09-19T00:54:31;3.85;;;1.63;;
1400;SDS011;46518;48.842;8.926;2023-09-19T00:57:00;1.27;;;1.17;;
1400;SDS011;46518;48.842;8.926;2023-09-19T00:59:28;2.42;;;1.25;;
1400;SDS011;46518;48.842;8.926;2023-09-19T01:01:58;1.80;;;1.20;;
1400;SDS011;46518;48.842;8.926;2023-09-19T01:04:27;1.63;;;1.15;;
1400;SDS011;46518;48.842;8.926;2023-09-19T01:06:56;1.73;;;1.17;;
1400;SDS011;46518;48.842;8.926;2023-09-19T01:09:26;1.70;;;1.00;;
1400;SDS011;46518;48.842;8.926;2023-09-19T01:11:57;2.50;;;1.50;;
1400;SDS011;46518;48.842;8.926;2023-09-19T01:14:30;1.80;;;1.27;;
1400;SDS011;46518;48.842;8.926;2023-09-19T01:17:07;3.58;;;1.08;;
1400;SDS011;46518;48.842;8.926;2023-09-19T01:19:59;1.80;;;1.10;;
1400;SDS011;46518;48.842;8.926;2023-09-19T01:22:42;1.80;;;1.42;;
1400;SDS011;46518;48.842;8.926;2023-09-19T01:28:30;2.08;;;1.10;;
1400;SDS011;46518;48.842;8.926;2023-09-19T01:31:06;1.30;;;1.20;;
1400;SDS011;46518;48.842;8.926;2023-09-19T01:33:54;1.60;;;1.30;;
1400;SDS011;46518;48.842;8.926;2023-09-19T01:36:29;1.85;;;1.35;;
1400;SDS011;46518;48.842;8.926;2023-09-19T01:39:00;1.48;;;1.35;;
1400;SDS011;46518;48.842;8.926;2023-09-19T01:41:38;1.63;;;1.45;;
1400;SDS011;46518;48.842;8.926;2023-09-19T01:44:19;1.25;;;1.08;;
1400;SDS011;46518;48.842;8.926;2023-09-19T01:46:53;1.38;;;1.27;;
1400;SDS011;46518;48.842;8.926;2023-09-19T01:49:27;1.27;;;1.17;;
1400;SDS011;46518;48.842;8.926;2023-09-19T01:52:03;3.80;;;1.60;;
1400;SDS011;46518;48.842;8.926;2023-09-19T01:54:41;1.73;;;1.20;;
1400;SDS011;46518;48.842;8.926;2023-09-19T01:57:27;1.48;;;1.15;;
1400;SDS011;46518;48.842;8.926;2023-09-19T02:00:00;3.17;;;1.60;;
1400;SDS011;46518;48.842;8.926;2023-09-19T02:02:42;1.67;;;1.05;;
1400;SDS011;46518;48.842;8.926;2023-09-19T02:05:12;2.65;;;1.13;;
1400;SDS011;46518;48.842;8.926;2023-09-19T02:07:41;1.20;;;1.10;;
1400;SDS011;46518;48.842;8.926;2023-09-19T02:10:11;1.10;;;1.00;;
1400;SDS011;46518;48.842;8.926;2023-09-19T02:12:51;1.63;;;1.40;;
1400;SDS011;46518;48.842;8.926;2023-09-19T02:15:19;1.55;;;1.20;;
1400;SDS011;46518;48.842;8.926;2023-09-19T02:17:50;6.20;;;1.60;;
1400;SDS011;46518;48.842;8.926;2023-09-19T02:20:18;1.33;;;1.10;;
1400;SDS011;46518;48.842;8.926;2023-09-19T02:22:48;1.35;;;1.13;;
1400;SDS011;46518;48.842;8.926;2023-09-19T02:25:19;1.30;;;1.20;;
1400;SDS011;46518;48.842;8.926;2023-09-19T02:27:48;5.35;;;1.15;;
1400;SDS011;46518;48.842;8.926;2023-09-19T02:30:16;1.77;;;1.35;;
1400;SDS011;46518;48.842;8.926;2023-09-19T02:32:46;1.20;;;1.10;;
1400;SDS011;46518;48.842;8.926;2023-09-19T02:35:17;1.20;;;1.02;;
1400;SDS011;46518;48.842;8.926;2023-09-19T02:37:46;1.30;;;1.20;;
1400;SDS011;46518;48.842;8.926;2023-09-19T02:40:15;3.33;;;1.58;;
1400;SDS011;46518;48.842;8.926;2023-09-19T02:42:46;2.65;;;1.00;;
1400;SDS011;46518;48.842;8.926;2023-09-19T02:45:16;1.98;;;1.38;;
1400;SDS011;46518;48.842;8.926;2023-09-19T02:47:47;1.20;;;1.10;;
1400;SDS011;46518;48.842;8.926;2023-09-19T02:50:17;1.25;;;1.15;;
1400;SDS011;46518;48.842;8.926;2023-09-19T02:52:46;2.00;;;1.20;;
1400;SDS011;46518;48.842;8.926;2023-09-19T02:55:18;2.15;;;1.30;;
1400;SDS011;46518;48.842;8.926;2023-09-19T02:57:48;1.77;;;1.10;;
1400;SDS011;46518;48.842;8.926;2023-09-19T03:00:19;1.00;;;0.90;;
1400;SDS011;46518;48.842;8.926;2023-09-19T03:02:49;2.75;;;1.80;;
1400;SDS011;46518;48.842;8.926;2023-09-19T03:05:20;1.30;;;1.20;;
1400;SDS011;46518;48.842;8.926;2023-09-19T03:07:50;1.92;;;1.20;;
1400;SDS011;46518;48.842;8.926;2023-09-19T03:10:20;2.47;;;1.30;;
1400;SDS011;46518;48.842;8.926;2023-09-19T03:12:48;2.88;;;1.30;;
1400;SDS011;46518;48.842;8.926;2023-09-19T03:15:18;2.42;;;1.90;;
1400;SDS011;46518;48.842;8.926;2023-09-19T03:17:49;2.08;;;1.10;;
1400;SDS011;46518;48.842;8.926;2023-09-19T03:20:22;1.85;;;1.35;;
1400;SDS011;46518;48.842;8.926;2023-09-19T03:22:50;1.65;;;1.23;;
1400;SDS011;46518;48.842;8.926;2023-09-19T03:25:20;2.13;;;1.27;;
1400;SDS011;46518;48.842;8.926;2023-09-19T03:27:51;1.73;;;1.50;;
1400;SDS011;46518;48.842;8.926;2023-09-19T03:30:21;3.85;;;1.80;;
1400;SDS011;46518;48.842;8.926;2023-09-19T03:32:50;1.80;;;1.25;;
1400;SDS011;46518;48.842;8.926;2023-09-19T03:35:19;1.60;;;1.50;;
1400;SDS011;46518;48.842;8.926;2023-09-19T03:37:49;1.85;;;1.63;;
1400;SDS011;46518;48.842;8.926;2023-09-19T03:40:20;1.85;;;1.40;;
1400;SDS011;46518;48.842;8.926;2023-09-19T03:42:50;1.05;;;0.95;;
1400;SDS011;46518;48.842;8.926;2023-09-19T03:45:18;1.63;;;1.50;;
1400;SDS011;46518;48.842;8.926;2023-09-19T03:47:50;1.35;;;1.23;;
1400;SDS011;46518;48.842;8.926;2023-09-19T03:50:20;1.58;;;1.45;;
1400;SDS011;46518;48.842;8.926;2023-09-19T03:52:51;1.50;;;1.25;;
1400;SDS011;46518;48.842;8.926;2023-09-19T03:55:24;1.48;;;1.38;;
1400;SDS011;46518;48.842;8.926;2023-09-19T03:57:53;2.05;;;1.65;;
1400;SDS011;46518;48.842;8.926;2023-09-19T04:00:21;2.38;;;1.60;;
1400;SDS011;46518;48.842;8.926;2023-09-19T04:02:53;3.72;;;1.50;;
1400;SDS011;46518;48.842;8.926;2023-09-19T04:05:23;1.60;;;1.50;;
1400;SDS011;46518;48.842;8.926;2023-09-19T04:07:53;1.55;;;1.45;;
1400;SDS011;46518;48.842;8.926;2023-09-19T04:10:21;2.90;;;1.70;;
1400;SDS011;46518;48.842;8.926;2023-09-19T04:12:52;1.40;;;1.30;;
1400;SDS011;46518;48.842;8.926;2023-09-19T04:15:21;1.23;;;1.00;;
1400;SDS011;46518;48.842;8.926;2023-09-19T04:17:52;1.90;;;1.40;;
1400;SDS011;46518;48.842;8.926;2023-09-19T04:20:21;1.85;;;1.60;;
1400;SDS011;46518;48.842;8.926;2023-09-19T04:22:50;1.48;;;1.38;;
1400;SDS011;46518;48.842;8.926;2023-09-19T04:25:21;2.28;;;1.50;;
1400;SDS011;46518;48.842;8.926;2023-09-19T04:27:49;2.80;;;1.45;;
1400;SDS011;46518;48.842;8.926;2023-09-19T04:30:18;2.00;;;1.90;;
1400;SDS011;46518;48.842;8.926;2023-09-19T04:32:48;2.20;;;1.85;;
1400;SDS011;46518;48.842;8.926;2023-09-19T04:35:18;1.52;;;1.42;;
1400;SDS011;46518;48.842;8.926;2023-09-19T04:37:47;2.25;;;1.80;;
1400;SDS011;46518;48.842;8.926;2023-09-19T04:40:17;2.28;;;2.08;;
1400;SDS011;46518;48.842;8.926;2023-09-19T04:42:52;3.05;;;1.90;;
1400;SDS011;46518;48.842;8.926;2023-09-19T04:45:22;2.20;;;1.90;;
1400;SDS011;46518;48.842;8.926;2023-09-19T04:47:50;2.10;;;1.90;;
1400;SDS011;46518;48.842;8.926;2023-09-19T04:50:19;1.65;;;1.55;;
1400;SDS011;46518;48.842;8.926;2023-09-19T04:52:50;1.58;;;1.48;;
1400;SDS011;46518;48.842;8.926;2023-09-19T04:55:20;2.40;;;2.20;;
1400;SDS011;46518;48.842;8.926;2023-09-19T04:57:48;1.95;;;1.60;;
1400;SDS011;46518;48.842;8.926;2023-09-19T05:00:20;2.35;;;2.25;;
1400;SDS011;46518;48.842;8.926;2023-09-19T05:02:51;2.30;;;2.10;;
1400;SDS011;46518;48.842;8.926;2023-09-19T05:05:20;2.00;;;1.85;;
1400;SDS011;46518;48.842;8.926;2023-09-19T05:07:49;4.70;;;2.60;;
1400;SDS011;46518;48.842;8.926;2023-09-19T05:10:22;2.10;;;1.90;;
1400;SDS011;46518;48.842;8.926;2023-09-19T05:12:52;2.85;;;2.45;;
1400;SDS011;46518;48.842;8.926;2023-09-19T05:15:21;2.85;;;2.53;;
1400;SDS011;46518;48.842;8.926;2023-09-19T05:17:50;4.15;;;2.08;;
1400;SDS011;46518;48.842;8.926;2023-09-19T05:20:24;2.33;;;2.13;;
1400;SDS011;46518;48.842;8.926;2023-09-19T05:23:00;4.15;;;2.83;;
1400;SDS011;46518;48.842;8.926;2023-09-19T05:25:31;2.60;;;2.40;;
1400;SDS011;46518;48.842;8.926;2023-09-19T05:28:00;3.72;;;3.03;;
1400;SDS011;46518;48.842;8.926;2023-09-19T05:30:30;3.08;;;2.80;;
1400;SDS011;46518;48.842;8.926;2023-09-19T05:33:00;4.28;;;2.72;;
1400;SDS011;46518;48.842;8.926;2023-09-19T05:35:29;4.10;;;2.85;;
1400;SDS011;46518;48.842;8.926;2023-09-19T05:37:57;2.72;;;2.50;;
1400;SDS011;46518;48.842;8.926;2023-09-19T05:40:26;3.03;;;2.80;;
1400;SDS011;46518;48.842;8.926;2023-09-19T05:42:56;2.90;;;2.65;;
1400;SDS011;46518;48.842;8.926;2023-09-19T05:45:24;4.35;;;3.30;;
1400;SDS011;46518;48.842;8.926;2023-09-19T05:47:54;3.72;;;3.15;;
1400;SDS011;46518;48.842;8.926;2023-09-19T05:50:28;5.25;;;3.13;;
1400;SDS011;46518;48.842;8.926;2023-09-19T05:52:56;2.95;;;2.75;;
1400;SDS011;46518;48.842;8.926;2023-09-19T05:55:24;4.57;;;3.10;;
1400;SDS011;46518;48.842;8.926;2023-09-19T05:57:53;4.68;;;2.90;;
1400;SDS011;46518;48.842;8.926;2023-09-19T06:00:23;5.05;;;3.53;;
1400;SDS011;46518;48.842;8.926;2023-09-19T06:02:54;5.13;;;3.08;;
1400;SDS011;46518;48.842;8.926;2023-09-19T06:05:25;3.30;;;3.00;;
1400;SDS011;46518;48.842;8.926;2023-09-19T06:07:54;5.53;;;4.50;;
1400;SDS011;46518;48.842;8.926;2023-09-19T06:10:27;3.60;;;3.30;;
1400;SDS011;46518;48.842;8.926;2023-09-19T06:12:56;2.97;;;2.38;;
1400;SDS011;46518;48.842;8.926;2023-09-19T06:15:26;5.28;;;3.92;;
1400;SDS011;46518;48.842;8.926;2023-09-19T06:17:55;4.38;;;3.40;;
1400;SDS011;46518;48.842;8.926;2023-09-19T06:20:25;3.05;;;2.85;;
1400;SDS011;46518;48.842;8.926;2023-09-19T06:22:53;3.70;;;3.40;;
1400;SDS011;46518;48.842;8.926;2023-09-19T06:25:22;3.72;;;2.92;;
1400;SDS011;46518;48.842;8.926;2023-09-19T06:27:51;7.72;;;3.65;;
1400;SDS011;46518;48.842;8.926;2023-09-19T06:30:21;3.50;;;3.20;;
1400;SDS011;46518;48.842;8.926;2023-09-19T06:32:56;2.53;;;2.15;;
1400;SDS011;46518;48.842;8.926;2023-09-19T06:35:25;4.57;;;2.90;;
1400;SDS011;46518;48.842;8.926;2023-09-19T06:37:54;3.45;;;2.50;;
1400;SDS011;46518;48.842;8.926;2023-09-19T06:40:25;3.80;;;2.80;;
1400;SDS011;46518;48.842;8.926;2023-09-19T06:42:55;6.35;;;3.35;;
1400;SDS011;46518;48.842;8.926;2023-09-19T06:45:23;8.13;;;3.33;;
1400;SDS011;46518;48.842;8.926;2023-09-19T06:47:54;5.45;;;4.28;;
1400;SDS011;46518;48.842;8.926;2023-09-19T06:50:27;4.43;;;3.50;;
1400;SDS011;46518;48.842;8.926;2023-09-19T06:52:57;8.45;;;3.30;;
1400;SDS011;46518;48.842;8.926;2023-09-19T06:55:26;5.97;;;3.30;;
1400;SDS011;46518;48.842;8.926;2023-09-19T06:57:59;4.15;;;3.75;;
1400;SDS011;46518;48.842;8.926;2023-09-19T07:00:27;4.63;;;2.95;;
1400;SDS011;46518;48.842;8.926;2023-09-19T07:02:58;4.20;;;3.17;;
1400;SDS011;46518;48.842;8.926;2023-09-19T07:05:35;3.40;;;3.00;;
1400;SDS011;46518;48.842;8.926;2023-09-19T07:08:07;3.42;;;3.13;;
1400;SDS011;46518;48.842;8.926;2023-09-19T07:10:36;6.47;;;2.60;;
1400;SDS011;46518;48.842;8.926;2023-09-19T07:13:04;3.10;;;2.67;;
1400;SDS011;46518;48.842;8.926;2023-09-19T07:15:36;3.15;;;2.53;;
1400;SDS011;46518;48.842;8.926;2023-09-19T07:18:08;2.72;;;2.53;;
1400;SDS011;46518;48.842;8.926;2023-09-19T07:20:39;2.67;;;2.47;;
1400;SDS011;46518;48.842;8.926;2023-09-19T07:23:16;3.05;;;2.03;;
1400;SDS011;46518;48.842;8.926;2023-09-19T07:25:46;3.17;;;2.72;;
1400;SDS011;46518;48.842;8.926;2023-09-19T07:28:15;3.22;;;2.95;;
1400;SDS011;46518;48.842;8.926;2023-09-19T07:30:44;3.28;;;2.25;;
1400;SDS011;46518;48.842;8.926;2023-09-19T07:33:32;2.80;;;2.50;;
1400;SDS011;46518;48.842;8.926;2023-09-19T07:36:02;3.40;;;3.10;;
1400;SDS011;46518;48.842;8.926;2023-09-19T07:38:31;4.00;;;2.53;;
1400;SDS011;46518;48.842;8.926;2023-09-19T07:41:00;3.00;;;2.70;;
1400;SDS011;46518;48.842;8.926;2023-09-19T07:43:29;5.50;;;2.70;;
1400;SDS011;46518;48.842;8.926;2023-09-19T07:46:02;2.35;;;2.15;;
1400;SDS011;46518;48.842;8.926;2023-09-19T07:48:32;3.42;;;2.90;;
1400;SDS011;46518;48.842;8.926;2023-09-19T07:51:04;4.20;;;2.72;;
1400;SDS011;46518;48.842;8.926;2023-09-19T07:53:33;3.22;;;2.92;;
1400;SDS011;46518;48.842;8.926;2023-09-19T07:56:03;3.90;;;2.83;;
1400;SDS011;46518;48.842;8.926;2023-09-19T07:58:32;2.38;;;2.25;;
1400;SDS011;46518;48.842;8.926;2023-09-19T08:01:02;2.60;;;2.10;;
1400;SDS011;46518;48.842;8.926;2023-09-19T08:03:31;3.28;;;2.40;;
1400;SDS011;46518;48.842;8.926;2023-09-19T08:06:00;2.80;;;2.60;;
1400;SDS011;46518;48.842;8.926;2023-09-19T08:08:30;3.65;;;2.67;;
1400;SDS011;46518;48.842;8.926;2023-09-19T08:10:58;2.30;;;1.98;;
1400;SDS011;46518;48.842;8.926;2023-09-19T08:13:28;2.75;;;2.10;;
1400;SDS011;46518;48.842;8.926;2023-09-19T08:16:00;2.55;;;2.33;;
1400;SDS011;46518;48.842;8.926;2023-09-19T08:18:29;3.35;;;2.25;;
1400;SDS011;46518;48.842;8.926;2023-09-19T08:20:57;1.98;;;1.88;;
1400;SDS011;46518;48.842;8.926;2023-09-19T08:23:31;2.35;;;2.00;;
1400;SDS011;46518;48.842;8.926;2023-09-19T08:25:59;4.85;;;2.20;;
1400;SDS011;46518;48.842;8.926;2023-09-19T08:28:34;2.40;;;2.20;;
1400;SDS011;46518;48.842;8.926;2023-09-19T08:31:03;2.00;;;1.75;;
1400;SDS011;46518;48.842;8.926;2023-09-19T08:33:32;2.35;;;2.15;;
1400;SDS011;46518;48.842;8.926;2023-09-19T08:36:05;3.85;;;2.38;;
1400;SDS011;46518;48.842;8.926;2023-09-19T08:38:37;4.03;;;2.63;;
1400;SDS011;46518;48.842;8.926;2023-09-19T08:41:06;1.88;;;1.75;;
1400;SDS011;46518;48.842;8.926;2023-09-19T08:43:35;2.90;;;2.30;;
1400;SDS011;46518;48.842;8.926;2023-09-19T08:46:09;2.10;;;1.98;;
1400;SDS011;46518;48.842;8.926;2023-09-19T08:48:42;1.83;;;1.73;;
1400;SDS011;46518;48.842;8.926;2023-09-19T08:51:17;4.55;;;2.40;;
1400;SDS011;46518;48.842;8.926;2023-09-19T08:53:52;4.20;;;2.15;;
1400;SDS011;46518;48.842;8.926;2023-09-19T08:56:27;2.22;;;1.52;;
1400;SDS011;46518;48.842;8.926;2023-09-19T08:58:59;2.15;;;1.95;;
1400;SDS011;46518;48.842;8.926;2023-09-19T09:01:30;3.35;;;1.50;;
1400;SDS011;46518;48.842;8.926;2023-09-19T09:04:00;2.47;;;1.80;;
1400;SDS011;46518;48.842;8.926;2023-09-19T09:06:29;2.85;;;1.65;;
1400;SDS011;46518;48.842;8.926;2023-09-19T09:09:01;1.67;;;1.50;;
1400;SDS011;46518;48.842;8.926;2023-09-19T09:11:31;2.05;;;1.88;;
1400;SDS011;46518;48.842;8.926;2023-09-19T09:14:01;2.38;;;1.25;;
1400;SDS011;46518;48.842;8.926;2023-09-19T09:16:29;1.90;;;1.50;;
1400;SDS011;46518;48.842;8.926;2023-09-19T09:18:58;2.50;;;2.30;;
1400;SDS011;46518;48.842;8.926;2023-09-19T09:21:26;2.10;;;1.77;;
1400;SDS011;46518;48.842;8.926;2023-09-19T09:23:55;2.40;;;1.63;;
1400;SDS011;46518;48.842;8.926;2023-09-19T09:29:11;4.50;;;1.48;;
1400;SDS011;46518;48.842;8.926;2023-09-19T09:31:48;2.85;;;1.83;;
1400;SDS011;46518;48.842;8.926;2023-09-19T09:34:16;2.03;;;1.92;;
1400;SDS011;46518;48.842;8.926;2023-09-19T09:36:45;2.58;;;1.85;;
1400;SDS011;46518;48.842;8.926;2023-09-19T09:39:27;3.83;;;1.67;;
1400;SDS011;46518;48.842;8.926;2023-09-19T09:42:00;1.90;;;1.45;;
1400;SDS011;46518;48.842;8.926;2023-09-19T09:44:33;2.00;;;1.90;;
1400;SDS011;46518;48.842;8.926;2023-09-19T09:47:02;1.52;;;1.35;;
1400;SDS011;46518;48.842;8.926;2023-09-19T09:49:50;4.03;;;1.83;;
1400;SDS011;46518;48.842;8.926;2023-09-19T09:52:44;2.78;;;1.77;;
1400;SDS011;46518;48.842;8.926;2023-09-19T09:55:12;1.73;;;1.63;;
1400;SDS011;46518;48.842;8.926;2023-09-19T09:57:42;2.78;;;2.15;;
1400;SDS011;46518;48.842;8.926;2023-09-19T10:00:11;2.40;;;1.40;;
1400;SDS011;46518;48.842;8.926;2023-09-19T10:02:50;1.85;;;1.65;;
1400;SDS011;46518;48.842;8.926;2023-09-19T10:05:19;1.80;;;1.70;;
1400;SDS011;46518;48.842;8.926;2023-09-19T10:07:58;3.17;;;1.70;;
1400;SDS011;46518;48.842;8.926;2023-09-19T10:10:40;1.70;;;1.60;;
1400;SDS011;46518;48.842;8.926;2023-09-19T10:13:22;3.20;;;1.60;;
1400;SDS011;46518;48.842;8.926;2023-09-19T10:15:54;1.83;;;1.67;;
1400;SDS011;46518;48.842;8.926;2023-09-19T10:18:25;3.05;;;1.60;;
1400;SDS011;46518;48.842;8.926;2023-09-19T10:20:56;2.65;;;1.50;;
1400;SDS011;46518;48.842;8.926;2023-09-19T10:23:27;2.63;;;1.40;;
1400;SDS011;46518;48.842;8.926;2023-09-19T10:25:56;2.75;;;1.70;;
1400;SDS011;46518;48.842;8.926;2023-09-19T10:28:30;1.42;;;1.33;;
1400;SDS011;46518;48.842;8.926;2023-09-19T10:31:02;2.30;;;1.80;;
1400;SDS011;46518;48.842;8.926;2023-09-19T10:33:34;2.03;;;1.45;;
1400;SDS011;46518;48.842;8.926;2023-09-19T10:36:05;2.05;;;1.67;;
1400;SDS011;46518;48.842;8.926;2023-09-19T10:38:36;1.55;;;1.25;;
1400;SDS011;46518;48.842;8.926;2023-09-19T10:41:07;1.70;;;1.60;;
1400;SDS011;46518;48.842;8.926;2023-09-19T10:43:40;1.35;;;1.15;;
1400;SDS011;46518;48.842;8.926;2023-09-19T10:46:11;2.00;;;1.73;;
1400;SDS011;46518;48.842;8.926;2023-09-19T10:48:40;2.80;;;1.60;;
1400;SDS011;46518;48.842;8.926;2023-09-19T10:51:11;3.30;;;1.65;;
1400;SDS011;46518;48.842;8.926;2023-09-19T10:53:45;1.98;;;1.30;;
1400;SDS011;46518;48.842;8.926;2023-09-19T10:56:18;2.60;;;1.80;;
1400;SDS011;46518;48.842;8.926;2023-09-19T10:58:50;3.67;;;1.50;;
1400;SDS011;46518;48.842;8.926;2023-09-19T11:01:19;2.28;;;1.38;;
1400;SDS011;46518;48.842;8.926;2023-09-19T11:03:48;3.17;;;2.88;;
1400;SDS011;46518;48.842;8.926;2023-09-19T11:06:59;1.52;;;1.42;;
1400;SDS011;46518;48.842;8.926;2023-09-19T11:09:48;4.13;;;1.40;;
1400;SDS011;46518;48.842;8.926;2023-09-19T11:21:40;3.83;;;1.77;;
1400;SDS011;46518;48.842;8.926;2023-09-19T11:24:27;2.45;;;1.50;;
1400;SDS011;46518;48.842;8.926;2023-09-19T11:27:11;7.00;;;1.77;;
1400;SDS011;46518;48.842;8.926;2023-09-19T11:29:40;1.70;;;1.60;;
1400;SDS011;46518;48.842;8.926;2023-09-19T11:32:09;1.88;;;1.77;;
1400;SDS011;46518;48.842;8.926;2023-09-19T11:34:43;2.87;;;1.97;;
1400;SDS011;46518;48.842;8.926;2023-09-19T11:40:46;2.58;;;1.35;;
1400;SDS011;46518;48.842;8.926;2023-09-19T11:43:29;4.53;;;1.90;;
1400;SDS011;46518;48.842;8.926;2023-09-19T11:46:02;2.67;;;1.80;;
1400;SDS011;46518;48.842;8.926;2023-09-19T11:48:38;2.25;;;1.33;;
1400;SDS011;46518;48.842;8.926;2023-09-19T11:51:14;2.00;;;1.63;;
1400;SDS011;46518;48.842;8.926;2023-09-19T11:53:49;3.53;;;1.58;;
1400;SDS011;46518;48.842;8.926;2023-09-19T11:56:19;1.77;;;1.60;;
1400;SDS011;46518;48.842;8.926;2023-09-19T11:58:50;2.92;;;1.60;;
1400;SDS011;46518;48.842;8.926;2023-09-19T12:01:22;4.40;;;1.55;;
1400;SDS011;46518;48.842;8.926;2023-09-19T12:03:58;1.70;;;1.55;;
1400;SDS011;46518;48.842;8.926;2023-09-19T12:06:30;2.63;;;1.40;;
1400;SDS011;46518;48.842;8.926;2023-09-19T12:08:59;2.30;;;1.65;;
1400;SDS011;46518;48.842;8.926;2023-09-19T12:11:30;1.67;;;1.30;;
1400;SDS011;46518;48.842;8.926;2023-09-19T12:14:01;3.63;;;1.30;;
1400;SDS011;46518;48.842;8.926;2023-09-19T12:16:31;3.43;;;2.00;;
1400;SDS011;46518;48.842;8.926;2023-09-19T12:19:18;2.95;;;1.50;;
1400;SDS011;46518;48.842;8.926;2023-09-19T12:21:57;2.35;;;2.15;;
1400;SDS011;46518;48.842;8.926;2023-09-19T12:24:31;1.97;;;1.20;;
1400;SDS011;46518;48.842;8.926;2023-09-19T12:27:02;2.20;;;1.50;;
1400;SDS011;46518;48.842;8.926;2023-09-19T12:29:41;1.80;;;1.20;;
1400;SDS011;46518;48.842;8.926;2023-09-19T12:32:10;1.57;;;1.47;;
1400;SDS011;46518;48.842;8.926;2023-09-19T12:34:39;1.50;;;1.40;;
1400;SDS011;46518;48.842;8.926;2023-09-19T12:37:12;1.90;;;1.37;;
1400;SDS011;46518;48.842;8.926;2023-09-19T12:39:48;1.70;;;1.33;;
1400;SDS011;46518;48.842;8.926;2023-09-19T12:42:18;2.80;;;1.17;;
1400;SDS011;46518;48.842;8.926;2023-09-19T12:44:48;2.10;;;1.17;;
1400;SDS011;46518;48.842;8.926;2023-09-19T12:47:22;4.47;;;1.47;;
1400;SDS011;46518;48.842;8.926;2023-09-19T12:50:08;5.60;;;1.60;;
1400;SDS011;46518;48.842;8.926;2023-09-19T12:52:46;2.50;;;1.83;;
1400;SDS011;46518;48.842;8.926;2023-09-19T12:55:19;1.50;;;1.40;;
1400;SDS011;46518;48.842;8.926;2023-09-19T12:57:59;2.60;;;1.33;;
1400;SDS011;46518;48.842;8.926;2023-09-19T13:00:33;2.50;;;1.60;;
1400;SDS011;46518;48.842;8.926;2023-09-19T13:03:12;2.33;;;1.47;;
1400;SDS011;46518;48.842;8.926;2023-09-19T13:05:49;2.50;;;1.40;;
1400;SDS011;46518;48.842;8.926;2023-09-19T13:08:23;2.00;;;1.70;;
1400;SDS011;46518;48.842;8.926;2023-09-19T13:11:00;1.53;;;1.40;;
1400;SDS011;46518;48.842;8.926;2023-09-19T13:13:34;2.80;;;1.43;;
1400;SDS011;46518;48.842;8.926;2023-09-19T13:16:03;1.50;;;1.40;;
1400;SDS011;46518;48.842;8.926;2023-09-19T13:18:41;2.13;;;1.53;;
1400;SDS011;46518;48.842;8.926;2023-09-19T13:21:12;3.53;;;1.77;;
1400;SDS011;46518;48.842;8.926;2023-09-19T13:23:51;2.30;;;1.50;;
1400;SDS011;46518;48.842;8.926;2023-09-19T13:26:21;2.23;;;1.57;;
1400;SDS011;46518;48.842;8.926;2023-09-19T13:28:49;1.57;;;1.40;;
1400;SDS011;46518;48.842;8.926;2023-09-19T13:31:17;3.73;;;1.80;;
1400;SDS011;46518;48.842;8.926;2023-09-19T13:33:47;2.07;;;1.40;;
1400;SDS011;46518;48.842;8.926;2023-09-19T13:36:17;1.50;;;1.30;;
1400;SDS011;46518;48.842;8.926;2023-09-19T13:38:45;1.87;;;1.67;;
1400;SDS011;46518;48.842;8.926;2023-09-19T13:41:17;1.90;;;1.30;;
1400;SDS011;46518;48.842;8.926;2023-09-19T13:43:45;3.73;;;1.43;;
1400;SDS011;46518;48.842;8.926;2023-09-19T13:46:15;2.57;;;1.73;;
1400;SDS011;46518;48.842;8.926;2023-09-19T13:48:52;2.23;;;1.53;;
1400;SDS011;46518;48.842;8.926;2023-09-19T13:51:21;1.43;;;1.23;;
1400;SDS011;46518;48.842;8.926;2023-09-19T13:53:50;2.10;;;1.70;;
1400;SDS011;46518;48.842;8.926;2023-09-19T13:56:22;2.00;;;1.30;;
1400;SDS011;46518;48.842;8.926;2023-09-19T13:58:51;3.03;;;1.90;;
1400;SDS011;46518;48.842;8.926;2023-09-19T14:01:20;1.73;;;1.50;;
1400;SDS011;46518;48.842;8.926;2023-09-19T14:03:48;1.60;;;1.20;;
1400;SDS011;46518;48.842;8.926;2023-09-19T14:06:17;1.63;;;1.53;;
1400;SDS011;46518;48.842;8.926;2023-09-19T14:08:46;1.87;;;1.77;;
1400;SDS011;46518;48.842;8.926;2023-09-19T14:11:16;1.40;;;1.30;;
1400;SDS011;46518;48.842;8.926;2023-09-19T14:13:46;1.70;;;1.20;;
1400;SDS011;46518;48.842;8.926;2023-09-19T14:16:16;3.30;;;1.27;;
1400;SDS011;46518;48.842;8.926;2023-09-19T14:18:45;4.37;;;1.80;;
1400;SDS011;46518;48.842;8.926;2023-09-19T14:21:14;2.60;;;1.63;;
1400;SDS011;46518;48.842;8.926;2023-09-19T14:23:42;1.63;;;1.30;;
1400;SDS011;46518;48.842;8.926;2023-09-19T14:26:11;2.50;;;1.50;;
1400;SDS011;46518;48.842;8.926;2023-09-19T14:28:40;1.93;;;1.70;;
1400;SDS011;46518;48.842;8.926;2023-09-19T14:31:10;1.40;;;1.20;;
1400;SDS011;46518;48.842;8.926;2023-09-19T14:33:38;1.87;;;1.20;;
1400;SDS011;46518;48.842;8.926;2023-09-19T14:36:08;1.53;;;1.37;;
1400;SDS011;46518;48.842;8.926;2023-09-19T14:38:37;1.70;;;1.60;;
1400;SDS011;46518;48.842;8.926;2023-09-19T14:41:06;2.23;;;1.40;;
1400;SDS011;46518;48.842;8.926;2023-09-19T14:43:35;1.40;;;1.30;;
1400;SDS011;46518;48.842;8.926;2023-09-19T14:46:03;1.60;;;1.50;;
1400;SDS011;46518;48.842;8.926;2023-09-19T14:48:35;1.63;;;1.50;;
1400;SDS011;46518;48.842;8.926;2023-09-19T14:51:05;1.60;;;1.50;;
1400;SDS011;46518;48.842;8.926;2023-09-19T14:53:35;1.40;;;1.30;;
1400;SDS011;46518;48.842;8.926;2023-09-19T14:56:06;1.43;;;1.10;;
1400;SDS011;46518;48.842;8.926;2023-09-19T14:58:36;2.07;;;1.80;;
1400;SDS011;46518;48.842;8.926;2023-09-19T15:01:07;3.07;;;1.33;;
1400;SDS011;46518;48.842;8.926;2023-09-19T15:03:39;2.13;;;1.17;;
1400;SDS011;46518;48.842;8.926;2023-09-19T15:06:09;1.30;;;1.20;;
1400;SDS011;46518;48.842;8.926;2023-09-19T15:08:41;2.67;;;1.37;;
1400;SDS011;46518;48.842;8.926;2023-09-19T15:11:12;1.73;;;1.10;;
1400;SDS011;46518;48.842;8.926;2023-09-19T15:13:43;1.30;;;1.00;;
1400;SDS011;46518;48.842;8.926;2023-09-19T15:16:12;1.30;;;1.20;;
1400;SDS011;46518;48.842;8.926;2023-09-19T15:18:42;1.67;;;1.03;;
1400;SDS011;46518;48.842;8.926;2023-09-19T15:21:14;1.40;;;1.03;;
1400;SDS011;46518;48.842;8.926;2023-09-19T15:23:43;1.97;;;1.10;;
1400;SDS011;46518;48.842;8.926;2023-09-19T15:26:13;1.10;;;1.00;;
1400;SDS011;46518;48.842;8.926;2023-09-19T15:28:44;1.50;;;1.40;;
1400;SDS011;46518;48.842;8.926;2023-09-19T15:31:12;1.17;;;1.00;;
1400;SDS011;46518;48.842;8.926;2023-09-19T15:33:43;1.17;;;1.07;;
1400;SDS011;46518;48.842;8.926;2023-09-19T15:36:12;4.50;;;1.00;;
1400;SDS011;46518;48.842;8.926;2023-09-19T15:38:55;4.20;;;1.17;;
1400;SDS011;46518;48.842;8.926;2023-09-19T15:41:24;5.87;;;1.73;;
1400;SDS011;46518;48.842;8.926;2023-09-19T15:43:53;1.87;;;1.10;;
1400;SDS011;46518;48.842;8.926;2023-09-19T15:46:22;0.93;;;0.90;;